createdAt,value
2023-04-17T00:00:35.569Z,5.75
2023-04-17T00:03:04.333Z,5.65
2023-04-17T00:05:33.720Z,5.15
2023-04-17T00:08:02.331Z,4.90
2023-04-17T00:10:30.497Z,4.80
2023-04-17T00:12:58.736Z,5.53
2023-04-17T00:15:28.703Z,6.68
2023-04-17T00:17:56.919Z,5.68
2023-04-17T00:20:25.118Z,5.43
2023-04-17T00:22:53.285Z,4.95
2023-04-17T00:25:21.536Z,5.90
2023-04-17T00:27:50.670Z,6.10
2023-04-17T00:30:19.059Z,5.28
2023-04-17T00:32:48.696Z,4.32
2023-04-17T00:35:17.135Z,6.13
2023-04-17T00:37:45.331Z,5.22
2023-04-17T00:40:14.177Z,5.28
2023-04-17T00:42:42.335Z,6.18
2023-04-17T00:45:11.425Z,7.72
2023-04-17T00:47:40.542Z,6.20
2023-04-17T00:50:11.206Z,7.10
2023-04-17T00:52:39.494Z,5.85
2023-04-17T00:55:08.807Z,7.85
2023-04-17T00:57:37.252Z,6.72
2023-04-17T01:00:08.416Z,7.38
2023-04-17T01:02:37.852Z,6.10
2023-04-17T01:05:06.961Z,7.35
2023-04-17T01:07:37.440Z,7.95
2023-04-17T01:10:06.401Z,5.97
2023-04-17T01:12:34.670Z,6.78
2023-04-17T01:15:04.361Z,5.80
2023-04-17T01:17:32.891Z,5.75
2023-04-17T01:20:01.146Z,6.13
2023-04-17T01:22:29.656Z,6.05
2023-04-17T01:25:01.105Z,5.97
2023-04-17T01:27:36.244Z,6.30
2023-04-17T01:30:07.567Z,5.55
2023-04-17T01:32:42.712Z,5.93
2023-04-17T01:35:12.037Z,4.75
2023-04-17T01:37:40.518Z,5.70
2023-04-17T01:40:11.531Z,5.72
2023-04-17T01:42:39.941Z,5.43
2023-04-17T01:45:09.760Z,5.55
2023-04-17T01:47:37.979Z,5.57
2023-04-17T01:50:09.023Z,5.35
2023-04-17T01:52:37.382Z,6.07
2023-04-17T01:55:06.104Z,5.97
2023-04-17T01:57:35.740Z,7.20
2023-04-17T02:00:07.120Z,8.00
2023-04-17T02:02:41.151Z,7.07
2023-04-17T02:05:09.767Z,7.53
2023-04-17T02:07:38.307Z,5.85
2023-04-17T02:10:07.360Z,5.25
2023-04-17T02:12:39.474Z,6.13
2023-04-17T02:15:09.079Z,9.02
2023-04-17T02:17:37.376Z,8.57
2023-04-17T02:20:07.529Z,13.80
2023-04-17T02:22:35.865Z,6.95
2023-04-17T02:25:04.278Z,6.32
2023-04-17T02:27:32.521Z,6.88
2023-04-17T02:30:02.132Z,8.48
2023-04-17T02:32:31.540Z,7.50
2023-04-17T02:34:59.990Z,7.35
2023-04-17T02:37:28.231Z,6.00
2023-04-17T02:39:57.449Z,6.28
2023-04-17T02:42:25.700Z,6.30
2023-04-17T02:44:54.103Z,5.88
2023-04-17T02:47:24.830Z,6.00
2023-04-17T02:49:53.062Z,7.35
2023-04-17T02:52:21.297Z,5.38
2023-04-17T02:54:49.690Z,6.82
2023-04-17T02:57:18.948Z,7.20
2023-04-17T02:59:47.277Z,7.00
2023-04-17T03:02:15.657Z,7.93
2023-04-17T03:04:45.496Z,7.80
2023-04-17T03:07:13.726Z,8.77
2023-04-17T03:09:42.733Z,8.30
2023-04-17T03:12:11.545Z,8.15
2023-04-17T03:14:39.727Z,8.65
2023-04-17T03:17:08.548Z,7.93
2023-04-17T03:19:36.950Z,8.10
2023-04-17T03:22:07.580Z,10.50
2023-04-17T03:24:35.863Z,10.40
2023-04-17T03:27:04.932Z,9.02
2023-04-17T03:29:39.795Z,8.95
2023-04-17T03:32:08.171Z,7.85
2023-04-17T03:34:37.023Z,8.82
2023-04-17T03:37:05.268Z,9.23
2023-04-17T03:39:34.882Z,8.70
2023-04-17T03:42:03.889Z,8.80
2023-04-17T03:44:32.641Z,7.88
2023-04-17T03:47:00.856Z,9.57
2023-04-17T03:49:29.071Z,6.88
2023-04-17T03:51:57.427Z,7.95
2023-04-17T03:54:29.794Z,7.88
2023-04-17T03:57:01.203Z,8.55
2023-04-17T03:59:31.477Z,7.45
2023-04-17T04:01:59.945Z,7.80
2023-04-17T04:04:30.585Z,6.57
2023-04-17T04:07:07.244Z,7.30
2023-04-17T04:09:37.496Z,7.20
2023-04-17T04:12:08.685Z,7.57
2023-04-17T04:14:42.188Z,7.75
2023-04-17T04:17:12.699Z,7.70
2023-04-17T04:19:42.794Z,6.80
2023-04-17T04:22:13.555Z,7.20
2023-04-17T04:24:48.381Z,8.32
2023-04-17T04:27:23.080Z,8.50
2023-04-17T04:29:52.873Z,7.65
2023-04-17T04:32:25.678Z,8.48
2023-04-17T04:34:58.398Z,8.02
2023-04-17T04:37:29.861Z,8.75
2023-04-17T04:40:10.570Z,7.20
2023-04-17T04:42:49.401Z,9.00
2023-04-17T04:45:22.241Z,32.85
2023-04-17T04:47:50.853Z,100.63
2023-04-17T04:50:19.866Z,238.85
2023-04-17T04:52:48.143Z,68.18
2023-04-17T04:55:30.594Z,25.67
2023-04-17T04:58:00.467Z,13.05
2023-04-17T05:00:29.007Z,11.02
2023-04-17T05:02:59.911Z,8.07
2023-04-17T05:05:29.934Z,7.18
2023-04-17T05:07:58.759Z,9.63
2023-04-17T05:10:31.866Z,9.75
2023-04-17T05:13:04.394Z,9.57
2023-04-17T05:15:33.505Z,9.20
2023-04-17T05:18:01.840Z,9.70
2023-04-17T05:20:33.018Z,9.98
2023-04-17T05:23:02.379Z,11.05
2023-04-17T05:25:30.626Z,9.32
2023-04-17T05:28:00.198Z,9.52
2023-04-17T05:30:30.328Z,12.57
2023-04-17T05:33:10.287Z,9.27
2023-04-17T05:35:47.239Z,10.20
2023-04-17T05:38:15.771Z,9.02
2023-04-17T05:40:46.221Z,9.00
2023-04-17T05:43:14.460Z,9.63
2023-04-17T05:45:44.158Z,8.75
2023-04-17T05:48:12.400Z,9.20
2023-04-17T05:50:40.595Z,8.80
2023-04-17T05:53:09.621Z,8.48
2023-04-17T05:55:45.378Z,10.13
2023-04-17T06:00:47.621Z,8.23
2023-04-17T06:03:19.301Z,7.47
2023-04-17T06:05:51.927Z,10.50
2023-04-17T06:08:20.380Z,8.32
2023-04-17T06:10:52.074Z,7.32
2023-04-17T06:13:20.447Z,9.32
2023-04-17T06:15:52.788Z,7.78
2023-04-17T06:18:21.004Z,9.13
2023-04-17T06:20:49.256Z,8.27
2023-04-17T06:23:17.545Z,8.90
2023-04-17T06:25:45.762Z,8.93
2023-04-17T06:28:16.335Z,8.18
2023-04-17T06:30:44.927Z,8.18
2023-04-17T06:33:14.706Z,9.02
2023-04-17T06:35:43.886Z,6.85
2023-04-17T06:38:23.619Z,7.03
2023-04-17T06:40:52.806Z,7.10
2023-04-17T06:43:21.423Z,6.20
2023-04-17T06:45:49.859Z,6.30
2023-04-17T06:48:19.464Z,6.13
2023-04-17T06:50:47.623Z,8.27
2023-04-17T06:53:15.891Z,8.85
2023-04-17T06:55:45.108Z,8.98
2023-04-17T06:58:13.260Z,8.20
2023-04-17T07:00:41.559Z,6.93
2023-04-17T07:03:09.888Z,7.80
2023-04-17T07:05:39.515Z,7.13
2023-04-17T07:08:07.706Z,6.22
2023-04-17T07:10:36.097Z,7.90
2023-04-17T07:13:06.491Z,7.03
2023-04-17T07:15:34.806Z,13.45
2023-04-17T07:18:03.167Z,8.18
2023-04-17T07:20:31.620Z,7.22
2023-04-17T07:23:01.143Z,6.93
2023-04-17T07:25:29.329Z,6.70
2023-04-17T07:27:57.885Z,6.13
2023-04-17T07:30:26.236Z,6.70
2023-04-17T07:32:54.603Z,5.50
2023-04-17T07:35:24.585Z,5.82
2023-04-17T07:37:55.802Z,5.63
2023-04-17T07:40:28.180Z,5.95
2023-04-17T07:42:56.814Z,5.93
2023-04-17T07:45:25.001Z,6.20
2023-04-17T07:47:53.364Z,5.53
2023-04-17T07:50:21.836Z,5.40
2023-04-17T07:52:50.033Z,5.32
2023-04-17T07:55:18.293Z,6.00
2023-04-17T07:57:50.072Z,5.43
2023-04-17T08:00:19.039Z,5.18
2023-04-17T08:02:47.854Z,5.93
2023-04-17T08:05:16.146Z,7.00
2023-04-17T08:07:44.392Z,5.75
2023-04-17T08:10:15.752Z,6.47
2023-04-17T08:12:44.052Z,6.78
2023-04-17T08:15:14.158Z,6.95
2023-04-17T08:17:42.392Z,7.15
2023-04-17T08:20:11.695Z,7.97
2023-04-17T08:22:40.720Z,6.95
2023-04-17T08:25:10.277Z,7.15
2023-04-17T08:27:39.854Z,6.25
2023-04-17T08:30:12.419Z,6.13
2023-04-17T08:32:44.625Z,6.85
2023-04-17T08:35:14.824Z,7.65
2023-04-17T08:37:44.300Z,8.60
2023-04-17T08:40:17.051Z,10.27
2023-04-17T08:42:47.634Z,8.77
2023-04-17T08:45:16.412Z,7.05
2023-04-17T08:47:46.105Z,7.70
2023-04-17T08:50:18.867Z,6.82
2023-04-17T08:52:48.559Z,8.23
2023-04-17T08:55:18.418Z,17.00
2023-04-17T08:58:00.785Z,8.10
2023-04-17T09:00:31.161Z,7.78
2023-04-17T09:03:02.648Z,7.55
2023-04-17T09:05:33.437Z,7.57
2023-04-17T09:08:10.167Z,8.82
2023-04-17T09:10:39.660Z,8.30
2023-04-17T09:13:08.573Z,10.20
2023-04-17T09:15:37.773Z,9.60
2023-04-17T09:18:26.133Z,10.23
2023-04-17T09:20:57.589Z,10.45
2023-04-17T09:23:27.095Z,9.13
2023-04-17T09:26:11.473Z,11.20
2023-04-17T09:28:40.533Z,11.27
2023-04-17T09:31:30.316Z,11.48
2023-04-17T09:34:00.931Z,13.65
2023-04-17T09:36:31.480Z,12.25
2023-04-17T09:39:00.992Z,10.98
2023-04-17T09:41:31.535Z,11.13
2023-04-17T09:44:05.268Z,10.98
2023-04-17T09:46:37.911Z,11.07
2023-04-17T09:49:11.869Z,13.32
2023-04-17T09:51:40.833Z,11.80
2023-04-17T09:54:12.346Z,10.30
2023-04-17T09:56:41.257Z,11.93
2023-04-17T09:59:10.085Z,11.90
2023-04-17T10:01:39.976Z,11.50
2023-04-17T10:04:10.015Z,12.32
2023-04-17T10:06:38.694Z,12.85
2023-04-17T10:09:08.135Z,11.05
2023-04-17T10:11:38.582Z,11.57
2023-04-17T10:14:14.045Z,10.50
2023-04-17T10:16:43.750Z,11.48
2023-04-17T10:19:30.901Z,10.50
2023-04-17T10:22:31.276Z,10.10
2023-04-17T10:25:18.802Z,9.57
2023-04-17T10:27:53.939Z,9.75
2023-04-17T10:30:23.926Z,10.70
2023-04-17T10:33:27.133Z,9.85
2023-04-17T10:35:56.722Z,8.20
2023-04-17T10:38:33.609Z,8.20
2023-04-17T10:41:09.128Z,7.60
2023-04-17T10:43:41.768Z,6.70
2023-04-17T10:46:12.170Z,6.95
2023-04-17T10:48:47.337Z,6.53
2023-04-17T10:51:41.968Z,6.35
2023-04-17T10:54:13.662Z,5.72
2023-04-17T10:56:44.771Z,5.78
2023-04-17T10:59:15.137Z,5.00
2023-04-17T11:02:00.574Z,5.03
2023-04-17T11:04:31.252Z,5.00
2023-04-17T11:07:01.580Z,5.35
2023-04-17T11:09:30.482Z,5.80
2023-04-17T11:12:01.851Z,5.63
2023-04-17T11:14:30.731Z,4.80
2023-04-17T11:16:58.970Z,5.28
2023-04-17T11:19:27.432Z,4.10
2023-04-17T11:21:58.483Z,4.82
2023-04-17T11:24:30.244Z,4.85
2023-04-17T11:27:01.284Z,5.10
2023-04-17T11:29:29.907Z,2.88
2023-04-17T11:32:00.662Z,2.80
2023-04-17T11:34:28.907Z,2.60
2023-04-17T11:36:58.208Z,2.15
2023-04-17T11:39:29.928Z,2.72
2023-04-17T11:41:58.449Z,2.58
2023-04-17T11:44:29.848Z,2.55
2023-04-17T11:46:59.377Z,2.78
2023-04-17T11:49:28.272Z,3.70
2023-04-17T11:51:57.680Z,4.18
2023-04-17T11:54:30.802Z,4.60
2023-04-17T11:57:01.264Z,5.30
2023-04-17T11:59:33.622Z,5.63
2023-04-17T12:02:02.445Z,5.03
2023-04-17T12:04:33.646Z,5.72
2023-04-17T12:07:02.743Z,5.95
2023-04-17T12:09:33.044Z,5.47
2023-04-17T12:12:03.538Z,5.85
2023-04-17T12:14:32.100Z,5.30
2023-04-17T12:17:00.409Z,5.50
2023-04-17T12:19:31.664Z,4.93
2023-04-17T12:22:00.187Z,5.22
2023-04-17T12:24:28.542Z,4.88
2023-04-17T12:26:58.752Z,4.40
2023-04-17T12:29:43.221Z,5.20
2023-04-17T12:32:12.659Z,4.82
2023-04-17T12:34:41.132Z,4.88
2023-04-17T12:37:09.369Z,4.68
2023-04-17T12:39:37.568Z,4.97
2023-04-17T12:42:10.328Z,4.55
2023-04-17T12:44:39.827Z,3.55
2023-04-17T12:47:08.123Z,2.85
2023-04-17T12:49:36.400Z,3.00
2023-04-17T12:52:06.674Z,3.53
2023-04-17T12:54:40.166Z,3.28
2023-04-17T12:57:10.087Z,3.65
2023-04-17T12:59:39.589Z,3.42
2023-04-17T13:02:10.707Z,3.65
2023-04-17T13:04:39.069Z,3.63
2023-04-17T13:07:07.337Z,3.63
2023-04-17T13:09:35.542Z,3.30
2023-04-17T13:12:05.387Z,3.20
2023-04-17T13:14:35.045Z,3.25
2023-04-17T13:17:03.993Z,3.03
2023-04-17T13:19:33.213Z,3.60
2023-04-17T13:22:01.713Z,3.60
2023-04-17T13:24:29.900Z,3.45
2023-04-17T13:26:59.128Z,3.85
2023-04-17T13:29:27.697Z,4.20
2023-04-17T13:31:57.247Z,3.35
2023-04-17T13:34:25.452Z,3.85
2023-04-17T13:36:53.722Z,4.10
2023-04-17T13:39:22.163Z,4.13
2023-04-17T13:41:51.453Z,4.13
2023-04-17T13:44:19.870Z,6.05
2023-04-17T13:46:48.123Z,5.60
2023-04-17T13:49:17.706Z,4.72
2023-04-17T13:51:46.104Z,4.60
2023-04-17T13:54:14.450Z,6.03
2023-04-17T13:56:43.332Z,5.22
2023-04-17T13:59:11.659Z,6.63
2023-04-17T14:01:40.301Z,5.70
2023-04-17T14:04:09.500Z,5.80
2023-04-17T14:06:39.507Z,5.32
2023-04-17T14:09:07.724Z,5.57
2023-04-17T14:11:35.925Z,4.63
2023-04-17T14:14:04.106Z,4.88
2023-04-17T14:16:32.368Z,4.70
2023-04-17T14:19:12.734Z,4.05
2023-04-17T14:21:43.498Z,4.18
2023-04-17T14:24:13.780Z,4.50
2023-04-17T14:26:42.104Z,4.60
2023-04-17T14:29:13.518Z,3.10
2023-04-17T14:31:42.694Z,4.00
2023-04-17T14:34:11.086Z,3.08
2023-04-17T14:36:39.337Z,3.00
2023-04-17T14:39:14.046Z,3.88
2023-04-17T14:41:42.593Z,2.92
2023-04-17T14:44:11.471Z,4.90
2023-04-17T14:46:40.073Z,3.90
2023-04-17T14:49:09.013Z,3.67
2023-04-17T14:51:37.262Z,3.92
2023-04-17T14:54:06.469Z,3.75
2023-04-17T14:56:38.990Z,4.22
2023-04-17T14:59:07.709Z,4.32
2023-04-17T15:01:35.952Z,4.72
2023-04-17T15:04:04.893Z,4.30
2023-04-17T15:06:33.334Z,3.88
2023-04-17T15:09:01.570Z,4.28
2023-04-17T15:11:29.763Z,5.45
2023-04-17T15:13:59.323Z,5.15
2023-04-17T15:16:27.708Z,4.00
2023-04-17T15:18:55.900Z,4.22
2023-04-17T15:21:24.166Z,4.70
2023-04-17T15:23:52.346Z,4.75
2023-04-17T15:26:20.565Z,5.05
2023-04-17T15:28:48.758Z,5.55
2023-04-17T15:31:18.346Z,5.40
2023-04-17T15:33:47.505Z,4.50
2023-04-17T15:36:15.768Z,4.70
2023-04-17T15:38:44.017Z,4.15
2023-04-17T15:41:12.305Z,4.25
2023-04-17T15:43:40.633Z,5.00
2023-04-17T15:46:08.882Z,4.45
2023-04-17T15:48:38.657Z,5.10
2023-04-17T15:51:07.487Z,3.95
2023-04-17T15:53:35.898Z,3.03
2023-04-17T15:56:04.159Z,2.72
2023-04-17T15:58:32.345Z,3.40
2023-04-17T16:01:00.501Z,3.67
2023-04-17T16:03:28.775Z,4.80
2023-04-17T16:05:58.389Z,3.42
2023-04-17T16:08:26.975Z,3.25
2023-04-17T16:10:55.164Z,4.22
2023-04-17T16:13:23.315Z,3.50
2023-04-17T16:15:51.772Z,6.13
2023-04-17T16:18:20.063Z,4.18
2023-04-17T16:20:48.338Z,5.03
2023-04-17T16:23:18.074Z,4.30
2023-04-17T16:25:46.357Z,4.32
2023-04-17T16:28:14.617Z,6.15
2023-04-17T16:30:42.832Z,6.57
2023-04-17T16:33:10.993Z,5.35
2023-04-17T16:35:39.231Z,4.68
2023-04-17T16:38:07.718Z,5.45
2023-04-17T16:40:37.280Z,5.18
2023-04-17T16:43:05.507Z,5.45
2023-04-17T16:45:37.404Z,5.38
2023-04-17T16:48:06.063Z,5.63
2023-04-17T16:50:37.465Z,4.85
2023-04-17T16:53:08.065Z,4.93
2023-04-17T16:55:38.847Z,4.80
2023-04-17T16:58:07.116Z,5.05
2023-04-17T17:00:36.164Z,4.90
2023-04-17T17:03:05.055Z,4.63
2023-04-17T17:05:35.129Z,4.20
2023-04-17T17:08:06.116Z,4.13
2023-04-17T17:10:34.319Z,4.03
2023-04-17T17:13:03.856Z,3.53
2023-04-17T17:15:32.096Z,3.70
2023-04-17T17:18:00.365Z,3.40
2023-04-17T17:20:28.578Z,2.83
2023-04-17T17:22:56.759Z,3.53
2023-04-17T17:25:24.916Z,3.47
2023-04-17T17:27:55.383Z,3.30
2023-04-17T17:30:25.344Z,3.38
2023-04-17T17:32:56.750Z,2.90
2023-04-17T17:35:25.222Z,2.90
2023-04-17T17:37:56.246Z,2.78
2023-04-17T17:40:24.402Z,2.40
2023-04-17T17:42:52.538Z,2.83
2023-04-17T17:45:20.707Z,1.88
2023-04-17T17:47:50.397Z,2.10
2023-04-17T17:50:18.874Z,1.98
2023-04-17T17:52:47.128Z,1.75
2023-04-17T17:55:16.560Z,1.75
2023-04-17T17:57:49.939Z,1.70
2023-04-17T18:00:19.014Z,1.80
2023-04-17T18:02:47.487Z,2.10
2023-04-17T18:05:17.663Z,2.03
2023-04-17T18:07:49.719Z,2.20
2023-04-17T18:10:18.416Z,2.00
2023-04-17T18:12:49.810Z,2.03
2023-04-17T18:15:18.241Z,1.42
2023-04-17T18:17:47.067Z,1.17
2023-04-17T18:20:16.782Z,1.60
2023-04-17T18:22:45.111Z,1.60
2023-04-17T18:25:13.547Z,1.27
2023-04-17T18:27:41.916Z,1.10
2023-04-17T18:30:11.074Z,1.30
2023-04-17T18:32:39.557Z,1.30
2023-04-17T18:35:08.996Z,1.10
2023-04-17T18:37:43.244Z,1.20
2023-04-17T18:40:13.251Z,1.52
2023-04-17T18:42:41.452Z,1.20
2023-04-17T18:45:14.710Z,1.15
2023-04-17T18:47:43.083Z,1.75
2023-04-17T18:50:12.774Z,1.00
2023-04-17T18:52:46.213Z,1.63
2023-04-17T18:55:18.389Z,1.63
2023-04-17T18:57:46.867Z,1.55
2023-04-17T19:00:17.747Z,1.25
2023-04-17T19:02:46.617Z,1.45
2023-04-17T19:05:15.261Z,1.17
2023-04-17T19:07:47.972Z,1.63
2023-04-17T19:10:16.182Z,1.40
2023-04-17T19:12:44.485Z,1.25
2023-04-17T19:15:14.776Z,1.35
2023-04-17T19:17:42.959Z,1.05
2023-04-17T19:20:11.635Z,1.05
2023-04-17T19:22:39.820Z,1.40
2023-04-17T19:25:10.391Z,1.30
2023-04-17T19:27:38.584Z,1.67
2023-04-17T19:30:09.514Z,1.30
2023-04-17T19:32:37.835Z,1.83
2023-04-17T19:35:09.791Z,1.77
2023-04-17T19:37:38.092Z,1.33
2023-04-17T19:40:24.347Z,4.28
2023-04-17T19:42:53.960Z,6.60
2023-04-17T19:45:22.159Z,2.75
2023-04-17T19:47:55.006Z,2.08
2023-04-17T19:50:28.691Z,1.90
2023-04-17T19:52:58.910Z,2.25
2023-04-17T19:55:29.461Z,1.98
2023-04-17T19:57:58.820Z,1.52
2023-04-17T20:00:27.641Z,1.63
2023-04-17T20:02:56.122Z,1.40
2023-04-17T20:05:24.659Z,1.80
2023-04-17T20:07:52.863Z,1.70
2023-04-17T20:10:21.142Z,1.25
2023-04-17T20:12:50.770Z,2.03
2023-04-17T20:15:21.916Z,1.98
2023-04-17T20:17:50.988Z,2.00
2023-04-17T20:20:19.288Z,1.90
2023-04-17T20:22:47.749Z,2.00
2023-04-17T20:25:15.977Z,1.70
2023-04-17T20:27:44.163Z,2.13
2023-04-17T20:30:18.255Z,2.40
2023-04-17T20:32:47.906Z,2.05
2023-04-17T20:35:17.037Z,1.92
2023-04-17T20:37:46.005Z,1.90
2023-04-17T20:40:14.538Z,1.80
2023-04-17T20:42:44.305Z,2.13
2023-04-17T20:45:14.001Z,1.70
2023-04-17T20:47:55.821Z,2.03
2023-04-17T20:50:24.908Z,2.30
2023-04-17T20:52:53.800Z,2.10
2023-04-17T20:55:22.066Z,2.30
2023-04-17T20:57:50.258Z,1.70
2023-04-17T21:00:20.086Z,1.77
2023-04-17T21:02:48.369Z,2.20
2023-04-17T21:05:16.703Z,1.98
2023-04-17T21:07:44.957Z,2.08
2023-04-17T21:10:14.724Z,1.70
2023-04-17T21:12:42.938Z,1.90
2023-04-17T21:15:11.879Z,1.95
2023-04-17T21:17:42.271Z,2.38
2023-04-17T21:20:12.070Z,2.25
2023-04-17T21:22:40.527Z,2.05
2023-04-17T21:25:09.631Z,2.00
2023-04-17T21:27:37.940Z,2.00
2023-04-17T21:30:10.505Z,2.33
2023-04-17T21:32:42.169Z,2.35
2023-04-17T21:35:11.346Z,2.20
2023-04-17T21:37:39.510Z,2.28
2023-04-17T21:40:08.945Z,2.47
2023-04-17T21:42:37.110Z,2.13
2023-04-17T21:45:06.021Z,1.98
2023-04-17T21:47:35.531Z,2.25
2023-04-17T21:50:07.193Z,2.00
2023-04-17T21:52:35.400Z,1.95
2023-04-17T21:55:05.591Z,2.65
2023-04-17T21:57:36.275Z,1.65
2023-04-17T22:00:06.224Z,2.00
2023-04-17T22:02:34.972Z,2.20
2023-04-17T22:05:04.928Z,2.42
2023-04-17T22:07:40.741Z,1.75
2023-04-17T22:10:15.900Z,3.70
2023-04-17T22:12:44.070Z,5.22
2023-04-17T22:15:14.218Z,2.63
2023-04-17T22:17:42.449Z,2.35
2023-04-17T22:21:06.038Z,1.92
2023-04-17T22:24:47.814Z,1.60
2023-04-17T22:28:29.474Z,2.17
2023-04-17T22:32:11.026Z,2.10
2023-04-17T22:35:52.891Z,1.60
2023-04-17T22:39:34.870Z,1.48
2023-04-17T22:43:16.353Z,1.98
2023-04-17T22:46:57.978Z,1.73
2023-04-17T22:50:39.695Z,1.65
2023-04-17T22:54:23.032Z,2.10
2023-04-17T22:58:05.081Z,2.08
2023-04-17T23:01:46.835Z,2.00
2023-04-17T23:05:28.599Z,2.08
2023-04-17T23:08:28.821Z,2.28
2023-04-17T23:10:59.649Z,2.30
2023-04-17T23:13:27.832Z,2.30
2023-04-17T23:15:56.028Z,2.10
2023-04-17T23:18:24.532Z,2.55
2023-04-17T23:20:52.763Z,2.58
2023-04-17T23:23:21.087Z,2.53
2023-04-17T23:25:50.735Z,2.75
2023-04-17T23:28:19.013Z,3.70
2023-04-17T23:30:47.227Z,2.95
2023-04-17T23:33:15.431Z,2.97
2023-04-17T23:35:43.579Z,3.47
2023-04-17T23:38:11.764Z,3.13
2023-04-17T23:40:39.938Z,3.33
2023-04-17T23:43:09.522Z,3.47
2023-04-17T23:45:37.687Z,3.58
2023-04-17T23:48:06.177Z,3.10
2023-04-17T23:50:34.763Z,3.40
2023-04-17T23:53:03.234Z,3.75
2023-04-17T23:55:31.479Z,3.75
2023-04-17T23:57:59.741Z,4.10
